Time;durP1;ratioP1;P1;durP2;ratioP2;P2;SDS_P1;SDS_P2;PMS_P1;PMS_P2;Temp;Humidity;BMP_temperature;BMP_pressure;BME280_temperature;BME280_humidity;BME280_pressure;Samples;Min_cycle;Max_cycle;Signal;HPM_P1;HPM_P2
2022/07/31 00:01:18;;;;;;;9.03;2.63;;;;;;;17.42;81.39;101146.00;4996514;28;20532;-66
2022/07/31 00:03:44;;;;;;;4.90;2.80;;;;;;;17.34;81.92;101139.44;4996458;28;20489;-67
2022/07/31 00:06:11;;;;;;;5.90;2.80;;;;;;;17.31;82.89;101148.34;4996101;28;20453;-65
2022/07/31 00:08:38;;;;;;;8.70;3.07;;;;;;;17.31;83.10;101136.56;4996514;28;20570;-67
2022/07/31 00:11:04;;;;;;;9.80;2.53;;;;;;;17.25;83.35;101140.63;4996396;28;20451;-66
2022/07/31 00:13:32;;;;;;;15.53;3.60;;;;;;;17.25;83.23;101141.44;4996509;28;20504;-67
2022/07/31 00:15:59;;;;;;;20.77;2.90;;;;;;;17.20;83.39;101144.38;4996276;28;20453;-66
2022/07/31 00:18:25;;;;;;;6.07;2.83;;;;;;;17.17;83.55;101144.22;4995906;28;20453;-67
2022/07/31 00:20:52;;;;;;;4.17;2.43;;;;;;;17.09;84.11;101137.69;4996340;28;20445;-67
2022/07/31 00:23:19;;;;;;;7.50;2.33;;;;;;;17.04;83.80;101140.59;4996003;28;20488;-67
2022/07/31 00:25:45;;;;;;;5.10;2.30;;;;;;;17.04;83.73;101140.59;4996314;28;20441;-66
2022/07/31 00:28:12;;;;;;;3.97;2.40;;;;;;;17.05;83.81;101136.75;4995624;28;20967;-66
2022/07/31 00:30:40;;;;;;;7.67;2.87;;;;;;;17.05;83.75;101139.50;4996214;28;20444;-67
2022/07/31 00:33:06;;;;;;;4.73;2.43;;;;;;;16.93;83.93;101139.38;4995875;28;20490;-66
2022/07/31 00:35:33;;;;;;;5.40;2.73;;;;;;;16.94;84.07;101132.78;4995570;28;20880;-67
2022/07/31 00:38:00;;;;;;;5.30;2.33;;;;;;;16.94;84.01;101135.50;4996013;28;20540;-67
2022/07/31 00:40:26;;;;;;;4.87;2.83;;;;;;;16.87;84.94;101128.63;4995751;28;20524;-65
2022/07/31 00:42:53;;;;;;;5.10;2.57;;;;;;;16.85;84.93;101121.88;4995399;28;20499;-67
2022/07/31 00:45:19;;;;;;;5.67;3.23;;;;;;;16.82;85.58;101119.78;4995775;28;20455;-66
2022/07/31 00:47:47;;;;;;;4.40;2.60;;;;;;;16.74;85.43;101117.94;4994349;28;20540;-67
2022/07/31 00:50:14;;;;;;;5.30;3.00;;;;;;;16.84;85.16;101109.34;4995789;28;20504;-66
2022/07/31 00:52:41;;;;;;;6.00;3.17;;;;;;;16.87;84.72;101112.22;4995838;28;20898;-66
2022/07/31 00:55:08;;;;;;;4.97;2.80;;;;;;;16.83;84.49;101113.22;4995752;28;20532;-65
2022/07/31 00:57:35;;;;;;;5.83;3.43;;;;;;;16.79;84.63;101107.59;4995098;28;20966;-67
2022/07/31 01:00:03;;;;;;;4.30;2.50;;;;;;;16.76;85.19;101110.97;4995159;28;20796;-65
2022/07/31 01:02:30;;;;;;;4.63;2.70;;;;;;;16.81;85.35;101113.53;4995266;28;20495;-68
2022/07/31 01:04:58;;;;;;;5.10;3.10;;;;;;;16.82;84.68;101106.94;4995430;28;20536;-68
2022/07/31 01:07:25;;;;;;;4.83;2.80;;;;;;;16.72;85.64;101117.41;4995525;28;20942;-69
2022/07/31 01:09:54;;;;;;;4.27;2.33;;;;;;;16.66;85.97;101122.28;4995417;28;20540;-69
2022/07/31 01:12:26;;;;;;;6.80;2.80;;;;;;;16.66;85.08;101119.53;4994999;28;20464;-69
2022/07/31 01:14:56;;;;;;;4.23;2.23;;;;;;;16.59;85.12;101119.22;4995351;28;20445;-67
2022/07/31 01:17:27;;;;;;;4.50;3.07;;;;;;;16.47;85.20;101121.84;4994951;28;20430;-68
2022/07/31 01:19:54;;;;;;;5.93;3.67;;;;;;;16.36;85.46;101126.88;4994920;28;20440;-68
2022/07/31 01:22:41;;;;;;;4.07;2.90;;;;;;;16.28;86.40;101127.72;4995035;28;20509;-68
2022/07/31 01:25:16;;;;;;;8.30;4.20;;;;;;;16.19;87.34;101130.47;4995120;28;20432;-68
2022/07/31 01:27:59;;;;;;;8.03;2.97;;;;;;;16.19;88.42;101135.13;4995408;28;20431;-69
2022/07/31 01:30:32;;;;;;;5.80;3.20;;;;;;;16.13;89.07;101134.50;4994965;28;20496;-68
2022/07/31 01:33:05;;;;;;;5.60;3.40;;;;;;;16.14;89.58;101131.44;4994954;28;20557;-68
2022/07/31 01:35:38;;;;;;;5.60;3.53;;;;;;;16.10;89.81;101130.47;4995003;28;20854;-69
2022/07/31 01:38:10;;;;;;;6.83;3.50;;;;;;;16.13;90.49;101123.56;4994963;28;20448;-68
2022/07/31 01:40:43;;;;;;;4.40;3.13;;;;;;;16.23;89.88;101127.88;4994749;28;20524;-69
2022/07/31 01:43:14;;;;;;;6.70;3.43;;;;;;;16.25;89.95;101133.84;4994238;28;21072;-68
2022/07/31 01:45:45;;;;;;;6.93;3.70;;;;;;;16.24;89.05;101130.28;4994737;28;20512;-69
2022/07/31 01:48:14;;;;;;;4.60;3.07;;;;;;;16.25;90.00;101131.13;4995035;28;20429;-68
2022/07/31 01:50:43;;;;;;;5.70;3.33;;;;;;;16.27;89.25;101123.38;4994638;28;20541;-68
2022/07/31 01:53:13;;;;;;;6.10;3.50;;;;;;;16.24;90.04;101119.34;4994600;28;20581;-68
2022/07/31 01:55:42;;;;;;;6.00;3.37;;;;;;;16.21;89.48;101114.56;4994606;28;20437;-68
2022/07/31 01:58:11;;;;;;;7.93;3.33;;;;;;;16.21;88.94;101117.28;4994225;28;20541;-68
2022/07/31 02:00:38;;;;;;;5.10;3.27;;;;;;;16.20;89.24;101118.41;4994391;28;20877;-69
2022/07/31 02:03:09;;;;;;;6.17;2.83;;;;;;;16.15;89.57;101119.38;4994300;28;20509;-68
2022/07/31 02:05:37;;;;;;;7.60;3.23;;;;;;;16.10;89.43;101113.28;4994391;28;20516;-68
2022/07/31 02:08:06;;;;;;;8.67;3.13;;;;;;;16.11;89.53;101109.41;4994284;28;20468;-69
2022/07/31 02:10:33;;;;;;;7.00;4.00;;;;;;;16.11;89.88;101115.72;4994227;28;21049;-68
2022/07/31 02:13:02;;;;;;;6.40;3.50;;;;;;;16.14;89.31;101115.03;4993780;28;20549;-69
2022/07/31 02:15:31;;;;;;;8.00;4.03;;;;;;;16.09;89.40;101120.69;4994180;28;20441;-69
2022/07/31 02:17:58;;;;;;;3.90;2.50;;;;;;;16.09;89.17;101111.69;4994119;28;20556;-68
2022/07/31 02:20:27;;;;;;;5.20;3.10;;;;;;;16.08;88.91;101104.63;4993954;28;20455;-69
2022/07/31 02:22:54;;;;;;;7.37;3.37;;;;;;;16.04;89.29;101111.88;4994034;28;20492;-69
2022/07/31 02:25:21;;;;;;;7.50;3.70;;;;;;;16.04;88.87;101120.06;4994502;28;20451;-69
2022/07/31 02:27:49;;;;;;;5.87;3.27;;;;;;;16.03;89.08;101121.19;4994295;28;20451;-68
2022/07/31 02:30:16;;;;;;;7.53;3.57;;;;;;;16.04;88.39;101120.84;4994012;28;20445;-68
2022/07/31 02:32:45;;;;;;;6.60;3.40;;;;;;;16.04;89.42;101117.31;4993861;28;20557;-67
2022/07/31 02:35:14;;;;;;;5.33;3.70;;;;;;;16.00;89.28;101114.44;4993989;28;20531;-69
2022/07/31 02:37:44;;;;;;;5.40;3.27;;;;;;;16.00;90.05;101111.69;4993895;28;20448;-68
2022/07/31 02:40:13;;;;;;;5.90;3.27;;;;;;;15.82;90.52;101107.41;4993759;28;20888;-68
2022/07/31 02:42:40;;;;;;;5.53;3.60;;;;;;;15.84;90.19;101105.13;4993183;28;20583;-67
2022/07/31 02:45:09;;;;;;;7.27;3.50;;;;;;;15.88;89.99;101095.97;4993512;28;20957;-66
2022/07/31 02:47:37;;;;;;;5.20;3.20;;;;;;;15.92;89.88;101104.31;4993472;28;20939;-67
2022/07/31 02:50:04;;;;;;;4.80;3.17;;;;;;;15.88;89.51;101090.50;4993806;28;20544;-67
2022/07/31 02:52:31;;;;;;;6.10;3.40;;;;;;;15.85;89.79;101099.38;4993610;28;20568;-67
2022/07/31 02:55:00;;;;;;;5.70;3.37;;;;;;;15.77;89.91;101096.63;4993783;28;20441;-66
2022/07/31 02:57:26;;;;;;;5.70;3.43;;;;;;;15.76;89.40;101095.00;4993574;28;20448;-67
2022/07/31 02:59:53;;;;;;;5.90;3.63;;;;;;;15.78;89.25;101100.97;4993719;28;20447;-66
2022/07/31 03:02:20;;;;;;;9.00;3.60;;;;;;;15.71;89.59;101093.25;4993273;28;20552;-67
2022/07/31 03:04:47;;;;;;;10.60;3.87;;;;;;;15.69;90.10;101095.50;4993799;28;20559;-66
2022/07/31 03:07:16;;;;;;;4.80;2.93;;;;;;;15.70;89.95;101099.84;4993783;28;20543;-66
2022/07/31 03:09:42;;;;;;;6.67;4.17;;;;;;;15.70;89.29;101094.38;4994346;28;20506;-66
2022/07/31 03:12:10;;;;;;;15.00;3.97;;;;;;;15.62;89.52;101095.97;4997072;28;20470;-65
2022/07/31 03:14:38;;;;;;;8.77;3.40;;;;;;;15.56;89.34;101102.72;4997182;28;20481;-66
2022/07/31 03:17:06;;;;;;;4.23;2.87;;;;;;;15.55;89.39;101103.06;4997584;28;20466;-66
2022/07/31 03:19:33;;;;;;;6.93;3.43;;;;;;;15.47;89.49;101104.66;4997129;28;20934;-67
2022/07/31 03:22:00;;;;;;;5.87;3.40;;;;;;;15.36;90.56;101104.19;4997564;28;20460;-66
2022/07/31 03:24:27;;;;;;;5.00;3.20;;;;;;;15.47;90.12;101098.38;4997149;28;20495;-67
2022/07/31 03:26:54;;;;;;;4.37;2.87;;;;;;;15.51;90.04;101099.34;4997109;28;20823;-66
2022/07/31 03:29:23;;;;;;;5.97;3.60;;;;;;;15.43;90.57;101089.22;4997133;28;20444;-66
2022/07/31 03:31:50;;;;;;;6.70;3.60;;;;;;;15.37;90.66;101094.84;4997226;28;20472;-65
2022/07/31 03:34:16;;;;;;;7.43;3.47;;;;;;;15.37;90.49;101088.59;4996977;28;20449;-67
2022/07/31 03:36:44;;;;;;;6.00;3.23;;;;;;;15.38;89.82;101093.72;4996986;28;20444;-66
2022/07/31 03:39:11;;;;;;;5.47;3.17;;;;;;;15.37;90.10;101085.88;4997014;28;20502;-66
2022/07/31 03:41:38;;;;;;;8.27;3.33;;;;;;;15.32;90.44;101099.69;4996497;28;20483;-66
2022/07/31 03:44:05;;;;;;;5.00;2.90;;;;;;;15.36;90.23;101090.53;5035900;23;20501;-70
2022/07/31 03:46:33;;;;;;;4.70;2.97;;;;;;;15.33;90.17;101093.88;5036174;28;20541;-71
2022/07/31 03:49:00;;;;;;;6.00;3.57;;;;;;;15.40;89.98;101096.13;5036173;28;20439;-71
2022/07/31 03:51:27;;;;;;;6.57;4.10;;;;;;;15.34;90.24;101100.16;5036400;28;20453;-70
2022/07/31 03:53:54;;;;;;;8.70;3.93;;;;;;;15.29;90.08;101098.38;5030187;28;20470;-70
2022/07/31 03:56:22;;;;;;;4.47;3.33;;;;;;;15.28;89.48;101098.72;5016579;28;20440;-70
2022/07/31 03:58:49;;;;;;;5.10;3.10;;;;;;;15.23;87.07;101098.84;5016483;28;20471;-70
2022/07/31 04:01:16;;;;;;;7.13;3.90;;;;;;;15.09;87.65;101099.00;5016682;28;20480;-70
2022/07/31 04:03:44;;;;;;;11.53;3.73;;;;;;;15.08;90.30;101106.38;5016060;28;20570;-71
2022/07/31 04:06:11;;;;;;;9.53;4.47;;;;;;;15.14;88.82;101105.13;5016086;28;20444;-69
2022/07/31 04:08:38;;;;;;;5.83;3.23;;;;;;;15.12;87.30;101099.16;5016269;28;20446;-76
2022/07/31 04:11:04;;;;;;;4.73;2.70;;;;;;;15.13;87.40;101097.22;5016043;28;20938;-70
2022/07/31 04:13:31;;;;;;;4.93;3.03;;;;;;;15.17;88.96;101100.13;5016207;28;20547;-71
2022/07/31 04:15:58;;;;;;;6.93;3.80;;;;;;;15.14;90.39;101104.31;5016231;28;20451;-70
2022/07/31 04:18:24;;;;;;;6.07;3.70;;;;;;;15.19;90.94;101097.91;5015775;28;20523;-70
2022/07/31 04:20:52;;;;;;;9.50;3.47;;;;;;;15.24;91.46;101098.53;5015868;28;20523;-70
2022/07/31 04:23:19;;;;;;;8.67;4.07;;;;;;;15.30;91.66;101102.72;5015590;28;20898;-70
2022/07/31 04:25:45;;;;;;;6.27;3.83;;;;;;;15.36;91.85;101111.53;5015972;28;20527;-70
2022/07/31 04:28:25;;;;;;;6.70;3.63;;;;;;;15.45;91.81;101111.53;5016008;28;20531;-71
2022/07/31 04:30:52;;;;;;;7.60;3.53;;;;;;;15.50;91.86;101101.28;5015401;28;20444;-71
2022/07/31 04:33:18;;;;;;;7.73;4.23;;;;;;;15.61;91.58;101101.75;5015445;28;20965;-71
2022/07/31 04:35:45;;;;;;;9.50;4.20;;;;;;;15.73;91.87;101099.22;5015800;28;20535;-71
2022/07/31 04:38:15;;;;;;;29.07;5.43;;;;;;;15.79;91.64;101100.63;5015809;28;20535;-71
2022/07/31 04:40:42;;;;;;;10.40;3.63;;;;;;;15.76;92.03;101101.31;5015707;28;20436;-70
2022/07/31 04:43:08;;;;;;;9.60;3.97;;;;;;;15.72;91.96;101092.16;5015669;28;20528;-71
2022/07/31 04:45:35;;;;;;;8.13;4.03;;;;;;;15.71;92.17;101095.97;5015115;28;20843;-71
2022/07/31 04:48:02;;;;;;;10.43;4.37;;;;;;;15.80;92.18;101098.72;5015241;28;20598;-71
2022/07/31 04:50:28;;;;;;;15.17;3.60;;;;;;;15.99;91.14;101109.31;5015548;28;20824;-71
2022/07/31 04:52:55;;;;;;;6.27;3.97;;;;;;;16.06;90.83;101104.94;5015474;28;20539;-71
2022/07/31 04:55:24;;;;;;;17.40;4.37;;;;;;;16.18;91.07;101098.78;5015314;28;20460;-71
2022/07/31 04:57:50;;;;;;;9.97;3.70;;;;;;;16.25;91.53;101098.31;5015650;28;20447;-71
2022/07/31 05:00:17;;;;;;;7.50;3.93;;;;;;;16.36;90.35;101094.06;5015409;28;20534;-71
2022/07/31 05:02:43;;;;;;;5.97;3.53;;;;;;;16.48;89.46;101101.59;5014982;28;20946;-71
2022/07/31 05:05:10;;;;;;;7.83;4.10;;;;;;;16.56;89.42;101100.75;5015162;28;20594;-71
2022/07/31 05:07:37;;;;;;;20.70;4.20;;;;;;;16.64;89.43;101099.91;5015482;28;20439;-72
2022/07/31 05:10:04;;;;;;;5.70;3.27;;;;;;;16.71;86.80;101110.34;5014947;28;21009;-71
2022/07/31 05:12:32;;;;;;;8.10;3.17;;;;;;;16.73;86.21;101111.63;5014795;28;20448;-71
2022/07/31 05:14:58;;;;;;;16.83;3.93;;;;;;;16.77;84.99;101111.78;5015093;28;20463;-71
2022/07/31 05:17:25;;;;;;;7.23;3.67;;;;;;;16.86;86.14;101115.25;5014668;28;20972;-72
2022/07/31 05:19:52;;;;;;;12.10;4.07;;;;;;;16.94;87.41;101117.16;5015052;28;20444;-72
2022/07/31 05:22:19;;;;;;;5.47;3.80;;;;;;;17.05;87.58;101117.59;5014879;28;20791;-71
2022/07/31 05:24:46;;;;;;;7.33;4.20;;;;;;;17.21;87.60;101117.78;5014423;28;20484;-71
2022/07/31 05:27:12;;;;;;;8.70;3.30;;;;;;;17.32;88.38;101117.09;5014868;28;20589;-72
2022/07/31 05:29:40;;;;;;;8.57;4.33;;;;;;;17.44;87.46;101119.06;5014834;28;20440;-71
2022/07/31 05:32:07;;;;;;;27.83;5.13;;;;;;;17.51;87.38;101126.75;5014319;28;20440;-71
2022/07/31 05:34:33;;;;;;;6.10;4.10;;;;;;;17.60;86.97;101116.53;5014860;28;20483;-71
2022/07/31 05:37:01;;;;;;;5.57;3.43;;;;;;;17.69;86.57;101119.19;5014716;28;20539;-71
2022/07/31 05:39:28;;;;;;;6.87;4.37;;;;;;;17.77;86.80;101130.13;5014709;28;20443;-71
2022/07/31 05:41:54;;;;;;;5.30;3.30;;;;;;;17.75;86.30;101123.34;5014624;28;20447;-71
2022/07/31 05:44:21;;;;;;;6.10;3.77;;;;;;;17.86;86.99;101127.28;5014227;28;20491;-71
2022/07/31 05:46:49;;;;;;;5.00;3.83;;;;;;;17.96;87.70;101128.81;5014492;28;20532;-72
2022/07/31 05:49:15;;;;;;;6.13;3.90;;;;;;;18.00;86.92;101127.00;5014452;28;20440;-72
2022/07/31 05:51:43;;;;;;;8.77;3.70;;;;;;;18.16;86.34;101130.72;5014484;28;20448;-72
2022/07/31 05:54:09;;;;;;;8.23;4.20;;;;;;;18.23;85.78;101135.63;5014379;28;20464;-72
2022/07/31 05:56:36;;;;;;;6.40;3.43;;;;;;;18.32;84.48;101126.16;5014321;28;20476;-72
2022/07/31 05:59:02;;;;;;;5.03;3.53;;;;;;;18.45;83.54;101131.66;5014279;28;20538;-71
2022/07/31 06:01:29;;;;;;;6.00;3.67;;;;;;;18.52;82.79;101137.41;5013932;28;20531;-71
2022/07/31 06:03:57;;;;;;;5.63;3.47;;;;;;;18.61;82.63;101138.09;5014118;28;20460;-71
2022/07/31 06:06:24;;;;;;;6.10;3.90;;;;;;;18.71;82.53;101145.91;5014133;28;20879;-71
2022/07/31 06:08:51;;;;;;;6.67;4.17;;;;;;;18.77;82.20;101143.72;5014134;28;20519;-71
2022/07/31 06:11:18;;;;;;;6.80;3.67;;;;;;;18.92;82.58;101136.75;5013792;28;20444;-71
2022/07/31 06:13:44;;;;;;;5.93;3.73;;;;;;;19.03;80.94;101138.69;5013981;28;20860;-71
2022/07/31 06:16:12;;;;;;;8.20;4.17;;;;;;;19.09;80.95;101131.84;5013945;28;20535;-71
2022/07/31 06:18:39;;;;;;;14.10;4.10;;;;;;;19.25;80.19;101134.66;5013987;28;20444;-71
2022/07/31 06:21:07;;;;;;;7.27;3.50;;;;;;;19.38;79.40;101140.94;5013943;28;20877;-71
2022/07/31 06:23:34;;;;;;;9.40;3.70;;;;;;;19.45;78.54;101134.84;5013518;28;20543;-71
2022/07/31 06:26:00;;;;;;;5.90;3.50;;;;;;;19.51;78.35;101127.97;5013829;28;20506;-71
2022/07/31 06:28:27;;;;;;;4.47;3.10;;;;;;;19.57;77.80;101121.88;5013800;28;20491;-73
2022/07/31 06:30:53;;;;;;;4.27;3.00;;;;;;;19.63;78.42;101120.50;5013474;28;20834;-72
2022/07/31 06:33:20;;;;;;;4.87;3.03;;;;;;;19.75;76.99;101122.41;5013728;28;20439;-70
2022/07/31 06:35:47;;;;;;;5.97;3.27;;;;;;;19.83;76.88;101129.72;5013358;28;20896;-70
2022/07/31 06:38:15;;;;;;;5.00;3.30;;;;;;;19.88;77.03;101132.22;5013635;28;20448;-70
2022/07/31 06:40:41;;;;;;;7.10;4.27;;;;;;;19.99;76.36;101134.44;5013592;28;20479;-70
2022/07/31 06:43:08;;;;;;;6.90;3.80;;;;;;;20.09;76.29;101128.44;5013617;28;20462;-70
2022/07/31 06:45:34;;;;;;;13.30;3.90;;;;;;;20.15;76.24;101132.53;5012038;28;20532;-70
2022/07/31 06:48:01;;;;;;;9.07;4.00;;;;;;;20.22;76.45;101129.94;5013273;28;20440;-70
2022/07/31 06:50:27;;;;;;;6.27;3.13;;;;;;;20.26;76.95;101139.09;5013544;28;20519;-69
2022/07/31 06:52:54;;;;;;;8.93;3.73;;;;;;;20.33;75.56;101131.03;5013519;28;20440;-70
2022/07/31 06:55:22;;;;;;;10.20;3.57;;;;;;;20.39;75.48;101140.63;5013379;28;20460;-70
2022/07/31 06:57:49;;;;;;;4.83;3.13;;;;;;;20.51;74.78;101139.78;5013490;28;20440;-70
2022/07/31 07:00:16;;;;;;;5.97;3.53;;;;;;;20.63;73.87;101144.41;5013532;28;20471;-70
2022/07/31 07:02:43;;;;;;;6.93;3.90;;;;;;;20.69;73.86;101142.97;5013129;28;20483;-70
2022/07/31 07:05:09;;;;;;;10.03;4.33;;;;;;;20.68;79.05;101141.38;5013308;28;20491;-71
2022/07/31 07:07:36;;;;;;;8.17;3.30;;;;;;;20.78;76.69;101146.34;5013382;28;20443;-70
2022/07/31 07:10:04;;;;;;;6.43;4.23;;;;;;;20.89;75.29;101128.13;5013345;28;20448;-70
2022/07/31 07:12:32;;;;;;;6.40;3.90;;;;;;;20.93;75.70;101130.94;5013328;28;20446;-70
2022/07/31 07:14:58;;;;;;;4.77;3.13;;;;;;;21.07;75.40;101131.31;5013163;28;20456;-70
2022/07/31 07:17:25;;;;;;;5.37;3.63;;;;;;;21.16;75.01;101133.81;5012970;28;20891;-71
2022/07/31 07:19:51;;;;;;;5.60;3.30;;;;;;;21.26;73.15;101133.28;5013267;28;20444;-70
2022/07/31 07:22:18;;;;;;;5.20;3.17;;;;;;;21.29;74.23;101132.53;5012952;28;20971;-70
2022/07/31 07:24:45;;;;;;;9.40;3.53;;;;;;;21.40;73.93;101135.59;5013109;28;20858;-70
2022/07/31 07:27:11;;;;;;;5.17;3.23;;;;;;;21.49;72.68;101127.09;5013224;28;20538;-70
2022/07/31 07:29:39;;;;;;;5.70;3.83;;;;;;;21.44;71.91;101122.69;5013166;28;20448;-71
2022/07/31 07:32:06;;;;;;;4.37;3.20;;;;;;;21.54;71.32;101118.53;5012872;28;20973;-71
2022/07/31 07:34:32;;;;;;;4.87;3.50;;;;;;;21.55;70.68;101117.38;5013076;28;20458;-71
2022/07/31 07:36:59;;;;;;;4.90;2.80;;;;;;;21.61;71.16;101111.22;5013133;28;20452;-71
2022/07/31 07:39:26;;;;;;;7.00;3.77;;;;;;;21.61;70.66;101110.44;5013065;28;20444;-71
2022/07/31 07:41:53;;;;;;;5.23;3.40;;;;;;;21.67;71.21;101111.72;5013049;28;20539;-70
2022/07/31 07:44:19;;;;;;;6.67;3.73;;;;;;;21.66;72.92;101104.63;5012802;28;20476;-70
2022/07/31 07:46:47;;;;;;;7.87;4.37;;;;;;;21.71;72.04;101109.81;5013037;28;20555;-71
2022/07/31 07:49:14;;;;;;;7.83;3.70;;;;;;;21.78;72.99;101109.97;5013006;28;20544;-71
2022/07/31 07:51:41;;;;;;;5.10;3.00;;;;;;;21.88;72.17;101101.09;5012639;28;20458;-70
2022/07/31 07:54:07;;;;;;;4.20;2.80;;;;;;;22.00;70.14;101099.31;5012882;28;20510;-71
2022/07/31 07:56:34;;;;;;;6.40;3.50;;;;;;;22.12;68.68;101090.91;5015019;28;20472;-71
2022/07/31 07:59:00;;;;;;;5.83;3.27;;;;;;;22.27;68.88;101092.78;5016529;28;20547;-74
2022/07/31 08:01:27;;;;;;;3.83;2.53;;;;;;;22.39;67.07;101094.53;5016771;28;20444;-76
2022/07/31 08:03:55;;;;;;;4.57;2.43;;;;;;;22.50;67.13;101098.28;5016684;28;20472;-73
2022/07/31 08:06:22;;;;;;;5.73;3.50;;;;;;;22.62;66.33;101089.81;5016380;28;20947;-73
2022/07/31 08:08:48;;;;;;;4.67;2.93;;;;;;;22.79;65.19;101099.50;5016364;28;21009;-73
2022/07/31 08:11:15;;;;;;;4.73;3.10;;;;;;;22.90;65.31;101096.94;5016094;28;21023;-74
2022/07/31 08:13:42;;;;;;;5.00;2.40;;;;;;;23.13;64.75;101099.63;5016183;28;20547;-74
2022/07/31 08:16:08;;;;;;;6.50;3.10;;;;;;;23.30;63.51;101093.56;5015923;28;20448;-74
2022/07/31 08:18:35;;;;;;;4.60;2.40;;;;;;;23.35;62.45;101087.69;5016181;28;20519;-73
2022/07/31 08:21:03;;;;;;;5.20;3.13;;;;;;;23.34;63.84;101091.63;5016169;28;20432;-73
2022/07/31 08:23:30;;;;;;;4.87;3.07;;;;;;;23.39;63.85;101091.28;5016012;28;20535;-73
2022/07/31 08:25:57;;;;;;;3.80;2.80;;;;;;;23.38;67.22;101086.94;5015907;28;20538;-73
2022/07/31 08:28:25;;;;;;;9.10;3.00;;;;;;;23.48;62.49;101090.22;5016040;28;20627;-73
2022/07/31 08:30:51;;;;;;;4.93;2.87;;;;;;;23.52;62.22;101099.34;5015587;28;20444;-73
2022/07/31 08:33:18;;;;;;;5.87;2.70;;;;;;;23.51;63.52;101081.97;5015581;28;20817;-73
2022/07/31 08:35:44;;;;;;;4.77;3.00;;;;;;;23.52;63.21;101089.09;5015844;28;20475;-73
2022/07/31 08:38:13;;;;;;;4.00;2.43;;;;;;;23.68;63.97;101091.66;5012056;28;20895;-73
2022/07/31 08:40:40;;;;;;;4.03;2.77;;;;;;;23.83;64.17;101087.09;5015642;28;20826;-73
2022/07/31 08:43:06;;;;;;;4.20;2.60;;;;;;;23.96;61.04;101082.06;5015640;28;20443;-73
2022/07/31 08:45:36;;;;;;;4.47;2.83;;;;;;;24.07;61.09;101082.97;5015309;28;20599;-73
2022/07/31 08:48:07;;;;;;;4.67;2.57;;;;;;;24.16;61.07;101077.91;5015376;28;20522;-73
2022/07/31 08:50:35;;;;;;;4.30;2.37;;;;;;;24.23;61.42;101077.97;5015264;28;20489;-73
2022/07/31 08:53:03;;;;;;;6.33;2.73;;;;;;;24.27;62.48;101073.28;5015560;28;20444;-73
2022/07/31 08:55:32;;;;;;;5.77;3.00;;;;;;;24.18;62.48;101070.03;5015398;28;20460;-73
2022/07/31 08:57:59;;;;;;;8.13;2.40;;;;;;;24.16;61.82;101072.38;5015101;28;20825;-73
2022/07/31 09:00:27;;;;;;;4.30;2.03;;;;;;;24.33;61.65;101074.50;5015296;28;20543;-73
2022/07/31 09:02:54;;;;;;;5.50;2.57;;;;;;;24.49;61.34;101068.72;5015119;28;20502;-73
2022/07/31 09:05:21;;;;;;;3.40;2.30;;;;;;;24.61;59.51;101068.44;5015236;28;20575;-73
2022/07/31 09:07:48;;;;;;;4.20;1.90;;;;;;;24.66;60.06;101072.81;5014313;28;20444;-73
2022/07/31 09:10:25;;;;;;;3.53;2.00;;;;;;;24.64;57.64;101069.63;5015224;28;20450;-73
2022/07/31 09:12:54;;;;;;;4.83;2.20;;;;;;;24.73;58.20;101063.75;5015179;28;20432;-73
2022/07/31 09:15:23;;;;;;;3.77;2.23;;;;;;;24.71;56.86;101075.22;5015070;28;20539;-73
2022/07/31 09:17:50;;;;;;;4.40;2.73;;;;;;;24.79;56.74;101060.25;5014706;28;20483;-73
2022/07/31 09:20:19;;;;;;;3.83;2.00;;;;;;;24.84;56.89;101054.31;5014990;28;20436;-75
2022/07/31 09:22:47;;;;;;;5.07;2.80;;;;;;;24.92;55.95;101061.50;5014666;28;20450;-73
2022/07/31 09:25:17;;;;;;;5.43;2.73;;;;;;;25.01;55.88;101057.56;5014472;28;20527;-73
2022/07/31 09:27:45;;;;;;;5.07;1.90;;;;;;;25.05;56.83;101066.69;5014537;28;20899;-73
2022/07/31 09:30:13;;;;;;;4.10;2.77;;;;;;;25.07;55.39;101064.34;5014796;28;20490;-73
2022/07/31 09:32:42;;;;;;;3.87;2.40;;;;;;;25.11;55.52;101063.19;5014755;28;20448;-73
2022/07/31 09:35:10;;;;;;;4.60;2.77;;;;;;;25.08;55.76;101054.88;5014652;28;20491;-73
2022/07/31 09:37:37;;;;;;;3.30;2.00;;;;;;;25.18;53.95;101056.88;5014646;28;20436;-73
2022/07/31 09:40:06;;;;;;;6.60;2.77;;;;;;;25.22;53.99;101054.91;5014483;28;20453;-73
2022/07/31 09:42:44;;;;;;;5.80;2.70;;;;;;;25.21;54.24;101049.78;5014581;28;20440;-73
2022/07/31 09:45:24;;;;;;;4.77;2.90;;;;;;;25.32;54.11;101056.97;5013961;28;20480;-73
2022/07/31 09:48:03;;;;;;;3.70;2.70;;;;;;;25.42;52.86;101053.44;5027609;23;20501;-71
2022/07/31 09:50:30;;;;;;;3.90;2.13;;;;;;;25.46;53.38;101049.88;4994790;28;20508;-71
2022/07/31 09:53:00;;;;;;;4.33;2.50;;;;;;;25.43;53.04;101051.44;4994820;28;20445;-70
2022/07/31 09:55:27;;;;;;;3.87;2.17;;;;;;;25.54;50.67;101049.47;4994462;28;20823;-71
2022/07/31 09:57:57;;;;;;;4.07;2.10;;;;;;;25.65;51.34;101057.84;4994469;28;20873;-70
2022/07/31 10:00:25;;;;;;;3.67;2.23;;;;;;;25.66;50.70;101053.88;4994811;28;20524;-70
2022/07/31 10:02:54;;;;;;;5.43;2.43;;;;;;;25.60;51.11;101058.25;4994442;28;20439;-71
2022/07/31 10:05:23;;;;;;;4.17;2.47;;;;;;;25.76;51.22;101050.34;4994432;28;20508;-71
2022/07/31 10:07:50;;;;;;;5.03;2.63;;;;;;;25.86;50.43;101049.59;4994498;28;21000;-71
2022/07/31 10:10:17;;;;;;;3.33;1.83;;;;;;;25.93;51.13;101043.25;4994554;28;20468;-71
2022/07/31 10:12:55;;;;;;;3.73;2.13;;;;;;;25.88;50.22;101038.09;4994456;28;20445;-70
2022/07/31 10:15:25;;;;;;;4.17;2.13;;;;;;;25.88;51.30;101038.88;4994717;28;20452;-71
2022/07/31 10:17:53;;;;;;;4.97;2.23;;;;;;;26.02;51.06;101040.09;4994276;28;20473;-70
2022/07/31 10:20:24;;;;;;;4.40;2.30;;;;;;;26.01;50.70;101041.28;4994125;28;20457;-70
2022/07/31 10:23:01;;;;;;;3.60;1.83;;;;;;;26.03;50.55;101028.59;4993993;28;20455;-71
2022/07/31 10:25:29;;;;;;;7.70;2.67;;;;;;;26.06;52.26;101032.56;4993952;28;20563;-70
2022/07/31 10:27:56;;;;;;;3.17;1.80;;;;;;;26.20;51.70;101032.53;4994065;28;20540;-70
2022/07/31 10:30:25;;;;;;;4.93;2.10;;;;;;;26.36;51.37;101027.38;4994275;28;20441;-70
2022/07/31 10:32:52;;;;;;;5.17;2.30;;;;;;;26.53;49.05;101034.16;4993985;28;20969;-72
2022/07/31 10:35:21;;;;;;;3.70;2.13;;;;;;;26.57;48.89;101023.81;4993946;28;20963;-71
2022/07/31 10:37:53;;;;;;;4.10;2.23;;;;;;;26.57;50.34;101031.38;4994172;28;20527;-71
2022/07/31 10:40:26;;;;;;;5.70;2.60;;;;;;;26.70;49.03;101026.97;4993879;28;20930;-71
2022/07/31 10:43:01;;;;;;;4.43;2.20;;;;;;;26.72;49.63;101019.03;4993934;28;20426;-71
2022/07/31 10:45:30;;;;;;;4.20;2.37;;;;;;;26.79;51.13;101015.44;4994125;28;20481;-72
2022/07/31 10:47:59;;;;;;;9.83;2.20;;;;;;;26.94;49.63;101010.63;4993775;28;20477;-71
2022/07/31 10:50:28;;;;;;;3.77;2.30;;;;;;;27.15;48.98;101022.47;4993650;28;20830;-72
2022/07/31 10:53:06;;;;;;;4.07;2.40;;;;;;;27.25;47.48;101006.13;4993980;28;20455;-72
2022/07/31 10:55:34;;;;;;;5.30;2.77;;;;;;;26.94;48.53;101016.19;4994065;28;20559;-71
2022/07/31 10:58:07;;;;;;;5.63;2.50;;;;;;;27.08;50.73;101016.13;4993583;28;20468;-70
2022/07/31 11:00:36;;;;;;;5.43;2.27;;;;;;;27.34;49.93;101012.84;4993614;28;20445;-71
2022/07/31 11:03:13;;;;;;;3.30;1.70;;;;;;;27.61;47.19;101015.84;4993746;28;20818;-73
2022/07/31 11:05:40;;;;;;;4.20;2.33;;;;;;;27.79;47.42;101007.41;4993522;28;20559;-71
2022/07/31 11:08:07;;;;;;;6.20;2.27;;;;;;;28.08;46.49;101004.41;4994077;28;20551;-71
2022/07/31 11:10:34;;;;;;;4.10;2.33;;;;;;;28.23;46.84;101005.88;4993800;28;20884;-71
2022/07/31 11:13:01;;;;;;;3.67;1.83;;;;;;;28.32;43.74;101010.97;4993619;28;21021;-69
2022/07/31 11:15:28;;;;;;;3.63;2.47;;;;;;;28.34;44.83;101009.34;4993776;28;20437;-72
2022/07/31 11:17:56;;;;;;;2.90;1.90;;;;;;;28.69;45.31;101010.22;4993657;28;20523;-70
2022/07/31 11:20:25;;;;;;;3.57;2.07;;;;;;;28.84;42.97;101005.25;4993393;28;20452;-70
2022/07/31 11:23:03;;;;;;;2.87;1.83;;;;;;;28.99;43.28;100994.75;4993444;28;20459;-72
2022/07/31 11:25:32;;;;;;;4.30;2.20;;;;;;;29.11;42.85;101002.56;4993331;28;20848;-71
2022/07/31 11:28:11;;;;;;;4.53;1.93;;;;;;;29.54;43.37;100999.19;4993279;28;20986;-70